createdAt,value
2022-10-18T06:07:53.362Z,10.05
2022-10-18T06:10:21.346Z,9.93
2022-10-18T06:12:49.293Z,10.35
2022-10-18T06:15:17.689Z,10.55
2022-10-18T06:17:45.645Z,9.52
2022-10-18T06:20:13.488Z,11.32
2022-10-18T06:22:41.379Z,9.32
2022-10-18T06:25:11.330Z,10.45
2022-10-18T06:27:39.544Z,11.07
2022-10-18T06:30:08.849Z,10.93
2022-10-18T06:32:36.747Z,11.57
2022-10-18T06:35:05.318Z,10.57
2022-10-18T06:37:35.608Z,9.70
2022-10-18T06:40:07.302Z,8.52
2022-10-18T06:42:36.553Z,9.13
2022-10-18T06:45:05.471Z,8.93
2022-10-18T06:47:33.356Z,9.30
2022-10-18T06:50:01.215Z,9.80
2022-10-18T06:52:29.468Z,9.18
2022-10-18T06:54:57.495Z,8.50
2022-10-18T06:57:25.437Z,9.18
2022-10-18T06:59:54.958Z,8.55
2022-10-18T07:02:24.932Z,7.72
2022-10-18T07:04:52.749Z,8.52
2022-10-18T07:07:21.398Z,8.18
2022-10-18T07:09:49.181Z,8.23
2022-10-18T07:12:17.997Z,7.70
2022-10-18T07:14:47.307Z,8.65
2022-10-18T07:17:16.972Z,7.65
2022-10-18T07:19:44.973Z,7.05
2022-10-18T07:22:12.939Z,8.65
2022-10-18T07:24:41.017Z,8.40
2022-10-18T07:27:08.927Z,7.25
2022-10-18T07:29:39.503Z,7.85
2022-10-18T07:32:07.842Z,7.82
2022-10-18T07:34:37.259Z,7.90
2022-10-18T07:37:05.231Z,7.15
2022-10-18T07:39:33.243Z,7.30
2022-10-18T07:42:02.286Z,7.93
2022-10-18T07:44:30.413Z,9.02
2022-10-18T07:46:58.326Z,9.55
2022-10-18T07:49:26.455Z,7.85
2022-10-18T07:51:55.683Z,8.20
2022-10-18T07:54:23.759Z,8.18
2022-10-18T07:56:51.568Z,9.15
2022-10-18T07:59:19.593Z,8.50
2022-10-18T08:01:47.541Z,8.45
2022-10-18T08:04:16.499Z,8.25
2022-10-18T08:06:44.649Z,8.90
2022-10-18T08:09:13.924Z,8.20
2022-10-18T08:11:44.911Z,8.52
2022-10-18T08:14:12.842Z,8.45
2022-10-18T08:16:40.699Z,7.47
2022-10-18T08:19:08.765Z,7.25
2022-10-18T08:21:36.745Z,8.00
2022-10-18T08:24:07.317Z,7.60
2022-10-18T08:26:36.644Z,7.38
2022-10-18T08:29:21.173Z,6.03
2022-10-18T08:31:51.446Z,6.00
2022-10-18T08:37:04.945Z,4.57
2022-10-18T08:39:35.576Z,5.47
2022-10-18T08:42:35.807Z,4.63
2022-10-18T08:45:12.695Z,5.68
2022-10-18T08:47:49.342Z,5.30
2022-10-18T08:50:21.076Z,5.90
2022-10-18T08:52:53.953Z,5.45
2022-10-18T08:55:26.390Z,5.32
2022-10-18T08:57:56.478Z,5.40
2022-10-18T09:00:26.679Z,5.07
2022-10-18T09:03:08.903Z,5.15
2022-10-18T09:05:46.708Z,5.38
2022-10-18T09:08:31.440Z,5.65
2022-10-18T09:11:11.186Z,5.50
2022-10-18T09:14:00.922Z,4.75
2022-10-18T09:16:35.904Z,6.32
2022-10-18T09:19:13.116Z,5.00
2022-10-18T09:21:51.195Z,4.93
2022-10-18T09:24:26.872Z,4.63
2022-10-18T09:26:59.288Z,5.50
2022-10-18T09:29:44.475Z,6.10
2022-10-18T09:32:25.566Z,4.65
2022-10-18T09:34:58.203Z,3.92
2022-10-18T09:37:29.290Z,4.85
2022-10-18T09:40:05.188Z,5.15
2022-10-18T09:42:37.223Z,5.32
2022-10-18T09:45:21.753Z,4.70
2022-10-18T09:47:58.591Z,4.00
2022-10-18T09:50:31.376Z,3.97
2022-10-18T09:53:09.291Z,3.25
2022-10-18T09:55:43.882Z,4.47
2022-10-18T09:58:14.941Z,4.20
2022-10-18T10:00:49.977Z,3.78
2022-10-18T10:03:18.088Z,4.88
2022-10-18T10:05:46.333Z,4.35
2022-10-18T10:08:14.487Z,3.20
2022-10-18T10:10:48.365Z,3.33
2022-10-18T10:13:23.229Z,2.80
2022-10-18T10:15:56.429Z,3.50
2022-10-18T10:18:27.326Z,3.72
2022-10-18T10:20:57.683Z,3.40
2022-10-18T10:23:29.842Z,3.10
2022-10-18T10:26:00.935Z,3.15
2022-10-18T10:28:32.388Z,3.53
2022-10-18T10:31:18.988Z,3.65
2022-10-18T10:33:48.572Z,2.95
2022-10-18T10:36:21.737Z,4.43
2022-10-18T10:39:04.743Z,3.35
2022-10-18T10:44:04.168Z,2.53
2022-10-18T10:46:38.215Z,3.75
2022-10-18T10:49:38.529Z,3.85
2022-10-18T10:52:08.449Z,3.22
2022-10-18T10:54:52.098Z,3.05
2022-10-18T10:57:25.198Z,3.05
2022-10-18T10:59:55.114Z,3.60
2022-10-18T11:02:32.173Z,3.55
2022-10-18T11:05:22.344Z,2.25
2022-10-18T11:07:54.256Z,1.95
2022-10-18T11:10:25.946Z,2.38
2022-10-18T11:13:02.459Z,2.90
2022-10-18T11:15:36.628Z,2.20
2022-10-18T11:18:14.497Z,2.38
2022-10-18T11:20:46.686Z,1.73
2022-10-18T11:23:17.017Z,1.73
2022-10-18T11:26:05.721Z,2.25
2022-10-18T11:28:54.249Z,3.17
2022-10-18T11:31:28.882Z,2.70
2022-10-18T11:34:16.343Z,2.97
2022-10-18T11:37:09.723Z,2.67
2022-10-18T11:39:56.032Z,2.35
2022-10-18T11:42:37.798Z,2.00
2022-10-18T11:45:15.774Z,2.30
2022-10-18T11:47:53.697Z,2.67
2022-10-18T11:50:34.076Z,2.75
2022-10-18T11:53:13.283Z,2.50
2022-10-18T11:55:52.094Z,3.60
2022-10-18T11:58:35.151Z,2.47
2022-10-18T12:01:13.917Z,2.35
2022-10-18T12:03:54.996Z,2.28
2022-10-18T12:06:29.373Z,2.35
2022-10-18T12:09:00.878Z,2.03
2022-10-18T12:11:33.098Z,3.10
2022-10-18T12:14:03.875Z,2.53
2022-10-18T12:16:51.451Z,2.30
2022-10-18T12:19:26.791Z,1.98
2022-10-18T12:21:59.135Z,2.08
2022-10-18T12:24:33.212Z,2.25
2022-10-18T12:27:03.576Z,2.13
2022-10-18T12:29:38.839Z,2.15
2022-10-18T12:32:14.779Z,2.00
2022-10-18T12:34:46.527Z,2.58
2022-10-18T12:37:32.711Z,2.72
2022-10-18T12:40:16.796Z,2.03
2022-10-18T12:45:26.703Z,2.53
2022-10-18T12:47:55.880Z,2.67
2022-10-18T12:50:34.006Z,2.17
2022-10-18T12:53:08.045Z,2.10
2022-10-18T12:55:38.432Z,2.45
2022-10-18T12:58:27.373Z,1.92
2022-10-18T13:01:01.798Z,2.08
2022-10-18T13:03:41.571Z,2.10
2022-10-18T13:06:09.925Z,2.08
2022-10-18T13:08:42.807Z,1.80
2022-10-18T13:11:30.348Z,2.67
2022-10-18T13:15:00.555Z,2.25
2022-10-18T13:17:47.581Z,2.70
2022-10-18T13:20:27.719Z,1.70
2022-10-18T13:23:07.116Z,1.67
2022-10-18T13:25:51.607Z,1.45
2022-10-18T13:28:30.275Z,1.83
2022-10-18T13:31:05.243Z,1.50
2022-10-18T13:33:35.771Z,2.95
2022-10-18T13:36:06.758Z,1.80
2022-10-18T13:38:40.738Z,2.15
2022-10-18T13:41:13.081Z,2.10
2022-10-18T13:44:11.480Z,2.47
2022-10-18T13:47:20.907Z,2.33
2022-10-18T13:53:22.955Z,1.90
2022-10-18T13:56:25.340Z,1.52
2022-10-18T13:59:16.752Z,1.95
2022-10-18T14:01:56.815Z,2.00
2022-10-18T14:04:40.207Z,1.58
2022-10-18T14:07:10.202Z,1.83
2022-10-18T14:09:49.789Z,1.70
2022-10-18T14:12:29.965Z,2.05
2022-10-18T14:15:07.029Z,2.40
2022-10-18T14:17:41.150Z,1.88
2022-10-18T14:20:20.849Z,2.35
2022-10-18T14:22:52.567Z,1.80
2022-10-18T14:25:23.537Z,2.72
2022-10-18T14:28:11.380Z,2.33
2022-10-18T14:30:53.813Z,1.77
2022-10-18T14:33:29.784Z,2.33
2022-10-18T14:36:03.740Z,2.10
2022-10-18T14:38:32.073Z,2.10
2022-10-18T14:41:08.527Z,2.00
2022-10-18T14:43:37.851Z,2.60
2022-10-18T14:46:19.731Z,2.60
2022-10-18T14:48:55.597Z,2.40
2022-10-18T14:51:24.742Z,2.78
2022-10-18T14:53:53.900Z,2.80
2022-10-18T14:56:26.750Z,2.88
2022-10-18T14:58:58.183Z,1.73
2022-10-18T15:01:29.448Z,1.95
2022-10-18T15:03:59.744Z,2.00
2022-10-18T15:06:28.089Z,2.40
2022-10-18T15:08:59.424Z,2.58
2022-10-18T15:11:28.330Z,2.88
2022-10-18T15:14:00.479Z,4.03
2022-10-18T15:16:31.256Z,2.83
2022-10-18T15:19:08.735Z,3.08
2022-10-18T15:21:37.831Z,3.00
2022-10-18T15:24:29.109Z,6.15
2022-10-18T15:27:00.996Z,4.40
2022-10-18T15:29:35.213Z,3.05
2022-10-18T15:32:14.219Z,1.88
2022-10-18T15:34:42.303Z,1.60
2022-10-18T15:37:30.501Z,1.75
2022-10-18T15:40:17.816Z,2.05
2022-10-18T15:42:46.489Z,1.70
2022-10-18T15:45:32.717Z,2.17
2022-10-18T15:48:18.653Z,1.88
2022-10-18T15:50:48.573Z,1.83
2022-10-18T15:53:33.456Z,1.77
2022-10-18T15:56:04.116Z,1.83
2022-10-18T15:58:40.883Z,2.53
2022-10-18T16:01:17.619Z,2.03
2022-10-18T16:03:47.709Z,2.10
2022-10-18T16:06:18.310Z,2.25
2022-10-18T16:08:48.980Z,2.40
2022-10-18T16:11:18.962Z,2.17
2022-10-18T16:13:46.948Z,2.00
2022-10-18T16:16:19.429Z,2.33
2022-10-18T16:18:47.349Z,2.35
2022-10-18T16:21:19.782Z,2.15
2022-10-18T16:23:47.991Z,2.10
2022-10-18T16:26:16.945Z,2.15
2022-10-18T16:28:45.819Z,2.30
2022-10-18T16:31:19.325Z,2.35
2022-10-18T16:33:48.271Z,2.35
2022-10-18T16:36:17.667Z,2.95
2022-10-18T16:38:46.490Z,2.47
2022-10-18T16:41:16.057Z,1.90
2022-10-18T16:43:44.912Z,3.42
2022-10-18T16:46:17.922Z,2.03
2022-10-18T16:48:48.761Z,2.10
2022-10-18T16:51:16.742Z,2.25
2022-10-18T16:53:45.102Z,2.22
2022-10-18T16:56:17.497Z,3.05
2022-10-18T16:58:47.782Z,1.95
2022-10-18T17:01:19.207Z,2.15
2022-10-18T17:03:51.415Z,3.25
2022-10-18T17:06:21.355Z,1.98
2022-10-18T17:08:49.622Z,2.33
2022-10-18T17:11:21.598Z,1.98
2022-10-18T17:13:49.583Z,2.40
2022-10-18T17:16:25.833Z,2.72
2022-10-18T17:18:57.606Z,2.22
2022-10-18T17:21:28.893Z,3.15
2022-10-18T17:24:00.616Z,1.90
2022-10-18T17:26:32.503Z,2.65
2022-10-18T17:29:03.219Z,2.17
2022-10-18T17:31:33.693Z,2.28
2022-10-18T17:34:10.816Z,2.20
2022-10-18T17:36:39.381Z,2.35
2022-10-18T17:39:07.486Z,1.40
2022-10-18T17:41:37.236Z,2.63
2022-10-18T17:44:06.046Z,2.38
2022-10-18T17:46:35.738Z,2.97
2022-10-18T17:49:08.218Z,2.45
2022-10-18T17:51:41.270Z,2.08
2022-10-18T17:54:09.610Z,2.70
2022-10-18T17:56:37.681Z,2.28
2022-10-18T17:59:05.957Z,4.47
2022-10-18T18:01:34.459Z,2.85
2022-10-18T18:04:04.690Z,4.00
2022-10-18T18:06:39.258Z,3.72
2022-10-18T18:09:09.241Z,4.63
2022-10-18T18:11:38.732Z,3.17
2022-10-18T18:14:09.141Z,3.25
2022-10-18T18:16:42.569Z,2.53
2022-10-18T18:19:12.634Z,2.38
2022-10-18T18:21:41.727Z,2.55
2022-10-18T18:24:10.922Z,2.90
2022-10-18T18:26:39.888Z,2.90
2022-10-18T18:29:08.705Z,2.97
2022-10-18T18:31:39.899Z,2.38
2022-10-18T18:34:14.752Z,1.95
2022-10-18T18:36:44.107Z,2.78
2022-10-18T18:39:19.904Z,2.28
2022-10-18T18:41:50.015Z,2.33
2022-10-18T18:44:19.384Z,2.72
2022-10-18T18:46:48.039Z,2.88
2022-10-18T18:49:18.742Z,3.13
2022-10-18T18:51:47.234Z,2.30
2022-10-18T18:54:17.334Z,2.85
2022-10-18T18:56:53.071Z,2.28
2022-10-18T18:59:21.569Z,2.30
2022-10-18T19:01:49.745Z,2.25
2022-10-18T19:04:26.493Z,2.45
2022-10-18T19:06:54.599Z,2.80
2022-10-18T19:09:27.029Z,3.53
2022-10-18T19:11:58.110Z,3.28
2022-10-18T19:14:27.125Z,2.65
2022-10-18T19:16:57.636Z,3.78
2022-10-18T19:19:32.378Z,4.05
2022-10-18T19:22:03.766Z,4.22
2022-10-18T19:24:39.377Z,3.20
2022-10-18T19:27:09.846Z,3.00
2022-10-18T19:29:40.401Z,3.60
2022-10-18T19:32:12.287Z,2.60
2022-10-18T19:34:43.976Z,3.38
2022-10-18T19:37:13.798Z,3.15
2022-10-18T19:39:42.269Z,3.75
2022-10-18T19:42:15.722Z,2.42
2022-10-18T19:44:47.228Z,2.75
2022-10-18T19:47:16.105Z,2.65
2022-10-18T19:49:48.813Z,2.45
2022-10-18T19:52:17.016Z,2.80
2022-10-18T19:54:47.119Z,2.95
2022-10-18T19:57:15.683Z,3.22
2022-10-18T19:59:43.854Z,2.83
2022-10-18T20:02:14.734Z,2.95
2022-10-18T20:04:42.774Z,2.75
2022-10-18T20:07:12.720Z,3.08
2022-10-18T20:09:40.864Z,2.60
2022-10-18T20:12:12.274Z,2.80
2022-10-18T20:14:42.309Z,3.10
2022-10-18T20:17:13.831Z,1.83
2022-10-18T20:19:42.298Z,2.65
2022-10-18T20:22:11.729Z,2.65
2022-10-18T20:24:41.833Z,2.70
2022-10-18T20:27:11.486Z,3.72
2022-10-18T20:29:39.552Z,2.97
2022-10-18T20:32:11.653Z,2.63
2022-10-18T20:34:42.655Z,2.70
2022-10-18T20:37:12.185Z,3.22
2022-10-18T20:39:40.910Z,3.00
2022-10-18T20:42:09.560Z,2.63
2022-10-18T20:44:41.044Z,3.17
2022-10-18T20:47:09.786Z,2.60
2022-10-18T20:49:37.824Z,2.75
2022-10-18T20:52:06.207Z,2.75
2022-10-18T20:54:35.828Z,2.80
2022-10-18T20:57:06.930Z,3.70
2022-10-18T20:59:35.840Z,2.03
2022-10-18T21:02:03.833Z,2.50
2022-10-18T21:04:32.305Z,2.78
2022-10-18T21:07:01.149Z,2.83
2022-10-18T21:09:32.031Z,2.95
2022-10-18T21:12:03.828Z,2.95
2022-10-18T21:14:32.175Z,2.88
2022-10-18T21:17:01.691Z,3.30
2022-10-18T21:19:32.437Z,2.58
2022-10-18T21:22:03.729Z,2.65
2022-10-18T21:24:34.763Z,2.28
2022-10-18T21:27:05.892Z,2.83
2022-10-18T21:29:35.261Z,3.53
2022-10-18T21:32:06.682Z,2.35
2022-10-18T21:34:39.725Z,2.92
2022-10-18T21:37:09.432Z,3.10
2022-10-18T21:39:37.691Z,3.13
2022-10-18T21:42:09.527Z,2.83
2022-10-18T21:44:40.406Z,2.42
2022-10-18T21:47:11.860Z,3.55
2022-10-18T21:49:45.043Z,3.50
2022-10-18T21:52:20.148Z,4.43
2022-10-18T21:54:51.370Z,3.47
2022-10-18T21:57:21.355Z,2.50
2022-10-18T21:59:51.684Z,3.10
2022-10-18T22:02:19.816Z,3.00
2022-10-18T22:04:50.082Z,3.17
2022-10-18T22:07:20.731Z,3.25
2022-10-18T22:09:51.963Z,2.97
2022-10-18T22:12:21.438Z,3.20
2022-10-18T22:14:50.008Z,3.05
2022-10-18T22:17:20.982Z,3.33
2022-10-18T22:19:54.090Z,3.60
2022-10-18T22:22:24.863Z,3.90
2022-10-18T22:25:01.005Z,3.75
2022-10-18T22:27:32.504Z,3.50
2022-10-18T22:30:01.776Z,3.42
2022-10-18T22:32:31.266Z,4.35
2022-10-18T22:34:59.246Z,4.38
2022-10-18T22:37:30.664Z,4.20
2022-10-18T22:39:58.933Z,4.07
2022-10-18T22:42:32.120Z,4.95
2022-10-18T22:45:01.222Z,4.15
2022-10-18T22:47:29.162Z,3.92
2022-10-18T22:50:00.252Z,4.00
2022-10-18T22:52:28.296Z,3.83
2022-10-18T22:54:56.908Z,3.55
2022-10-18T22:57:24.997Z,4.25
2022-10-18T22:59:54.621Z,3.78
2022-10-18T23:02:25.971Z,3.63
2022-10-18T23:04:53.979Z,3.33
2022-10-18T23:07:25.140Z,4.13
2022-10-18T23:09:56.243Z,4.43
2022-10-18T23:12:26.760Z,4.00
2022-10-18T23:14:56.633Z,3.55
2022-10-18T23:17:36.130Z,5.22
2022-10-18T23:20:06.915Z,4.05
2022-10-18T23:22:35.884Z,4.00
2022-10-18T23:25:04.688Z,4.57
2022-10-18T23:27:35.410Z,3.85
2022-10-18T23:30:06.285Z,3.58
2022-10-18T23:32:35.123Z,3.38
2022-10-18T23:35:03.784Z,3.60
2022-10-18T23:37:35.568Z,3.38
2022-10-18T23:40:07.959Z,3.17
2022-10-18T23:42:39.456Z,3.25
2022-10-18T23:45:10.932Z,3.15
2022-10-18T23:47:45.319Z,3.05
2022-10-18T23:50:16.599Z,3.22
2022-10-18T23:52:48.127Z,3.20
2022-10-18T23:55:19.522Z,3.58
2022-10-18T23:57:47.690Z,3.65
